Bueno Brandao, Brazil
Current Conditions -  °F | °C
As of 6:00 AM on Wednesday 22 Oct 2014 (Local Time) from SBKP Reporting Station
Broken Clouds Broken Clouds  
Wind Chill: 63°   Ceiling: 4800
Heat Index: 63°   Visibility: 6mi
Dew Point: 55°   Wind: 18mph
Humidity: 77%   Direction: 130°SE
Pressure: 30.09"   Gusts: NA
Location:  22.44°S, 46.35°W
Report Text: SBKP 220800Z 13016KT 9999 BKN048 17/13 Q1019
Loading
Personal Weather Stations






























Interactive Weather Map
Tropical Storm Tracking
New forecast layout! Learn more

10-Day Weather Forecast

Advertisements
Track Severe Weather on mobile